Time;durP1;ratioP1;P1;durP2;ratioP2;P2;SDS_P1;SDS_P2;PMS_P1;PMS_P2;Temp;Humidity;BMP_temperature;BMP_pressure;BME280_temperature;BME280_humidity;BME280_pressure;Samples;Min_cycle;Max_cycle;Signal;HPM_P1;HPM_P2
2023/07/16 00:02:06;;;;;;;2.75;2.55;;;;;;;;;;6135550;23;20230;-84
2023/07/16 00:04:34;;;;;;;2.42;2.22;;;;;;;;;;6135345;23;20180;-83
2023/07/16 00:07:02;;;;;;;1.52;1.48;;;;;;;;;;6133930;23;20270;-82
2023/07/16 00:09:31;;;;;;;2.00;1.90;;;;;;;;;;6134166;23;20171;-83
2023/07/16 00:11:58;;;;;;;2.35;2.15;;;;;;;;;;6135567;23;20204;-82
2023/07/16 00:14:26;;;;;;;4.15;2.22;;;;;;;;;;6135340;23;20187;-82
2023/07/16 00:16:53;;;;;;;2.70;2.30;;;;;;;;;;6134068;23;20226;-81
2023/07/16 00:19:21;;;;;;;3.38;2.38;;;;;;;;;;6133549;23;20175;-83
2023/07/16 00:21:48;;;;;;;4.47;2.33;;;;;;;;;;6133707;23;20180;-82
2023/07/16 00:24:16;;;;;;;2.17;2.08;;;;;;;;;;6133998;23;20255;-83
2023/07/16 00:26:45;;;;;;;2.20;2.00;;;;;;;;;;6133289;23;20572;-83
2023/07/16 00:29:12;;;;;;;3.05;2.42;;;;;;;;;;6132311;23;20203;-83
2023/07/16 00:31:39;;;;;;;2.65;2.20;;;;;;;;;;6133373;23;20184;-83
2023/07/16 00:34:07;;;;;;;1.95;1.85;;;;;;;;;;6133788;23;20211;-82
2023/07/16 00:36:34;;;;;;;2.17;2.03;;;;;;;;;;6132795;23;20676;-82
2023/07/16 00:39:02;;;;;;;2.42;2.22;;;;;;;;;;6133081;23;20232;-83
2023/07/16 00:41:29;;;;;;;2.83;2.30;;;;;;;;;;6133628;23;20210;-82
2023/07/16 00:43:58;;;;;;;2.17;2.00;;;;;;;;;;6132439;23;20569;-81
2023/07/16 00:46:26;;;;;;;2.45;2.25;;;;;;;;;;6132487;23;20239;-83
2023/07/16 00:48:54;;;;;;;2.33;1.98;;;;;;;;;;6132026;23;20623;-83
2023/07/16 00:51:23;;;;;;;1.85;1.75;;;;;;;;;;6131021;23;20215;-83
2023/07/16 00:53:51;;;;;;;2.15;1.95;;;;;;;;;;6131809;23;20262;-81
2023/07/16 00:56:19;;;;;;;2.33;2.13;;;;;;;;;;6130608;23;20231;-83
2023/07/16 00:58:46;;;;;;;1.65;1.55;;;;;;;;;;6130737;23;20211;-83
2023/07/16 01:01:15;;;;;;;2.05;1.80;;;;;;;;;;6129564;23;20258;-83
2023/07/16 01:03:43;;;;;;;1.77;1.67;;;;;;;;;;6130085;23;20207;-82
2023/07/16 01:06:15;;;;;;;1.60;1.50;;;;;;;;;;6130209;23;20223;-82
2023/07/16 01:08:46;;;;;;;2.38;2.17;;;;;;;;;;6129860;23;20251;-81
2023/07/16 01:11:14;;;;;;;2.60;1.70;;;;;;;;;;6130320;23;20504;-82
2023/07/16 01:13:42;;;;;;;2.05;1.85;;;;;;;;;;6129558;23;20210;-82
2023/07/16 01:16:21;;;;;;;1.17;1.17;;;;;;;;;;6129346;23;20195;-82
2023/07/16 01:18:49;;;;;;;1.98;1.63;;;;;;;;;;6130129;23;20219;-83
2023/07/16 01:21:17;;;;;;;2.03;1.80;;;;;;;;;;6129795;23;20259;-81
2023/07/16 01:24:04;;;;;;;2.55;2.35;;;;;;;;;;6130331;23;20619;-83
2023/07/16 01:26:49;;;;;;;1.83;1.67;;;;;;;;;;6129821;23;20282;-83
2023/07/16 01:29:29;;;;;;;1.58;1.48;;;;;;;;;;6129227;23;20242;-83
2023/07/16 01:31:58;;;;;;;2.15;2.05;;;;;;;;;;6130259;23;20214;-83
2023/07/16 01:34:27;;;;;;;1.63;1.52;;;;;;;;;;6131448;23;20231;-83
2023/07/16 01:36:54;;;;;;;1.50;1.40;;;;;;;;;;6131022;23;20274;-83
2023/07/16 01:39:22;;;;;;;1.67;1.58;;;;;;;;;;6131536;23;20262;-82
2023/07/16 01:41:49;;;;;;;1.95;1.65;;;;;;;;;;6131414;23;20218;-83
2023/07/16 01:44:16;;;;;;;1.67;1.58;;;;;;;;;;6132714;23;20207;-82
2023/07/16 01:46:45;;;;;;;2.10;1.90;;;;;;;;;;6130542;23;20270;-83
2023/07/16 01:49:13;;;;;;;1.40;1.30;;;;;;;;;;6131416;23;20579;-82
2023/07/16 01:51:40;;;;;;;1.42;1.33;;;;;;;;;;6129746;23;20255;-83
2023/07/16 01:54:08;;;;;;;1.70;1.60;;;;;;;;;;6130565;23;20206;-83
2023/07/16 01:56:36;;;;;;;1.60;1.35;;;;;;;;;;6131745;23;20205;-83
2023/07/16 01:59:03;;;;;;;2.10;1.80;;;;;;;;;;6131838;23;20255;-83
2023/07/16 02:01:30;;;;;;;1.40;1.30;;;;;;;;;;6131637;23;20239;-81
2023/07/16 02:03:59;;;;;;;1.50;1.40;;;;;;;;;;6130684;23;20207;-82
2023/07/16 02:06:27;;;;;;;2.03;1.77;;;;;;;;;;6131484;23;20588;-84
2023/07/16 02:08:54;;;;;;;1.98;1.85;;;;;;;;;;6132077;23;20286;-83
2023/07/16 02:11:21;;;;;;;2.15;1.48;;;;;;;;;;6132191;23;20285;-83
2023/07/16 02:13:50;;;;;;;1.55;1.45;;;;;;;;;;6131813;23;20555;-83
2023/07/16 02:16:17;;;;;;;1.92;1.77;;;;;;;;;;6130789;23;20231;-83
2023/07/16 02:18:45;;;;;;;1.60;1.50;;;;;;;;;;6130724;23;20218;-82
2023/07/16 02:21:14;;;;;;;1.48;1.38;;;;;;;;;;6131806;23;20230;-81
2023/07/16 02:23:41;;;;;;;1.25;1.20;;;;;;;;;;6131815;23;20552;-82
2023/07/16 02:26:09;;;;;;;1.27;1.27;;;;;;;;;;6130847;23;20283;-81
2023/07/16 02:28:36;;;;;;;1.50;1.40;;;;;;;;;;6130039;23;20231;-82
2023/07/16 02:31:04;;;;;;;1.70;1.60;;;;;;;;;;6130063;23;20215;-82
2023/07/16 02:33:31;;;;;;;1.27;1.25;;;;;;;;;;6130270;23;20255;-83
2023/07/16 02:35:59;;;;;;;4.28;1.45;;;;;;;;;;6129941;23;20586;-84
2023/07/16 02:38:27;;;;;;;1.70;1.60;;;;;;;;;;6129027;23;20250;-83
2023/07/16 02:40:55;;;;;;;1.50;1.40;;;;;;;;;;6129524;23;20211;-83
2023/07/16 02:43:22;;;;;;;1.67;1.23;;;;;;;;;;6130487;23;20207;-83
2023/07/16 02:45:50;;;;;;;1.20;1.20;;;;;;;;;;6129943;23;20195;-81
2023/07/16 02:48:17;;;;;;;1.38;1.27;;;;;;;;;;6129819;23;20693;-82
2023/07/16 02:50:45;;;;;;;1.00;1.00;;;;;;;;;;6129397;23;20199;-83
2023/07/16 02:53:12;;;;;;;1.52;1.30;;;;;;;;;;6129468;23;20558;-83
2023/07/16 02:55:41;;;;;;;2.15;1.60;;;;;;;;;;6129871;23;20248;-83
2023/07/16 02:58:08;;;;;;;1.60;1.50;;;;;;;;;;6130172;23;20815;-83
2023/07/16 03:00:36;;;;;;;1.30;1.20;;;;;;;;;;6128954;23;20239;-83
2023/07/16 03:03:03;;;;;;;1.10;1.00;;;;;;;;;;6131554;23;20203;-84
2023/07/16 03:05:31;;;;;;;1.63;1.33;;;;;;;;;;6129634;23;20223;-83
2023/07/16 03:07:58;;;;;;;2.45;1.67;;;;;;;;;;6130206;23;20242;-83
2023/07/16 03:10:26;;;;;;;2.03;1.05;;;;;;;;;;6129587;23;20259;-81
2023/07/16 03:12:55;;;;;;;1.70;1.60;;;;;;;;;;6131143;23;20575;-82
2023/07/16 03:15:23;;;;;;;1.88;1.48;;;;;;;;;;6132663;23;20223;-94
2023/07/16 03:17:50;;;;;;;1.17;1.13;;;;;;;;;;6131678;23;20234;-92
2023/07/16 03:20:18;;;;;;;1.10;1.10;;;;;;;;;;6116509;23;20215;-92
2023/07/16 03:22:46;;;;;;;1.10;1.05;;;;;;;;;;6102639;23;20176;-93
2023/07/16 03:25:14;;;;;;;1.20;1.10;;;;;;;;;;6103870;23;20177;-93
2023/07/16 03:27:42;;;;;;;0.90;0.90;;;;;;;;;;6103535;23;20176;-93
2023/07/16 03:30:12;;;;;;;1.30;1.23;;;;;;;;;;6102853;23;20203;-93
2023/07/16 03:32:39;;;;;;;1.25;1.15;;;;;;;;;;6102470;23;20201;-93
2023/07/16 03:35:08;;;;;;;1.58;1.48;;;;;;;;;;6105476;23;20625;-93
2023/07/16 03:37:35;;;;;;;1.38;1.23;;;;;;;;;;6104639;23;20185;-94
2023/07/16 03:40:15;;;;;;;1.52;1.38;;;;;;;;;;6104770;23;20199;-93
2023/07/16 03:42:43;;;;;;;1.17;1.13;;;;;;;;;;6103910;23;20180;-93
2023/07/16 03:45:13;;;;;;;1.73;1.10;;;;;;;;;;6103756;23;20184;-93
2023/07/16 03:47:41;;;;;;;4.85;2.53;;;;;;;;;;6105242;23;20224;-93
2023/07/16 03:50:10;;;;;;;1.13;1.02;;;;;;;;;;6107662;23;20216;-93
2023/07/16 03:52:38;;;;;;;1.10;1.10;;;;;;;;;;6107418;23;20640;-93
2023/07/16 03:55:12;;;;;;;1.25;1.17;;;;;;;;;;6107605;23;20184;-93
2023/07/16 03:57:40;;;;;;;1.15;1.10;;;;;;;;;;6103824;23;20180;-93
2023/07/16 04:00:10;;;;;;;1.45;1.30;;;;;;;;;;6104148;23;20364;-93
2023/07/16 04:02:39;;;;;;;1.35;0.93;;;;;;;;;;6105630;23;20184;-93
2023/07/16 04:05:08;;;;;;;4.28;1.52;;;;;;;;;;6106175;23;20199;-93
2023/07/16 04:07:36;;;;;;;1.50;1.10;;;;;;;;;;6106503;23;20177;-93
2023/07/16 04:10:04;;;;;;;1.20;1.10;;;;;;;;;;6106719;23;20201;-93
2023/07/16 04:12:32;;;;;;;1.77;1.15;;;;;;;;;;6106742;23;20180;-93
2023/07/16 04:15:00;;;;;;;3.78;1.30;;;;;;;;;;6105449;23;20183;-94
2023/07/16 04:17:28;;;;;;;2.00;1.45;;;;;;;;;;6106494;23;20184;-93
2023/07/16 04:19:58;;;;;;;1.20;1.10;;;;;;;;;;6107992;23;20457;-94
2023/07/16 04:22:25;;;;;;;1.20;1.10;;;;;;;;;;6106082;23;20204;-93
2023/07/16 04:24:53;;;;;;;0.90;0.90;;;;;;;;;;6106305;23;20176;-94
2023/07/16 04:27:21;;;;;;;0.98;0.80;;;;;;;;;;6107205;23;20176;-93
2023/07/16 04:29:48;;;;;;;1.00;1.00;;;;;;;;;;6107887;23;20208;-93
2023/07/16 04:32:16;;;;;;;1.10;1.10;;;;;;;;;;6108159;23;20188;-93
2023/07/16 04:34:44;;;;;;;2.42;2.10;;;;;;;;;;6109574;23;20224;-93
2023/07/16 04:37:13;;;;;;;1.25;1.17;;;;;;;;;;6112175;23;20172;-94
2023/07/16 04:39:41;;;;;;;1.58;1.48;;;;;;;;;;6111467;23;20668;-93
2023/07/16 04:42:09;;;;;;;0.80;0.80;;;;;;;;;;6111013;23;20636;-93
2023/07/16 04:44:36;;;;;;;1.17;0.95;;;;;;;;;;6112640;23;20187;-93
2023/07/16 04:47:04;;;;;;;1.38;1.27;;;;;;;;;;6113823;23;20204;-93
2023/07/16 04:49:35;;;;;;;1.25;1.20;;;;;;;;;;6111099;23;20207;-93
2023/07/16 04:52:03;;;;;;;1.42;1.10;;;;;;;;;;6111801;23;20165;-93
2023/07/16 04:54:37;;;;;;;1.25;1.15;;;;;;;;;;6110175;23;20441;-94
2023/07/16 04:57:07;;;;;;;1.30;1.20;;;;;;;;;;6108593;23;20219;-94
2023/07/16 04:59:35;;;;;;;1.13;1.02;;;;;;;;;;6109913;23;20492;-93
2023/07/16 05:02:05;;;;;;;1.00;1.00;;;;;;;;;;6109290;23;20183;-93
2023/07/16 05:04:33;;;;;;;1.27;0.95;;;;;;;;;;6107203;23;20173;-94
2023/07/16 05:07:02;;;;;;;1.05;1.05;;;;;;;;;;6107498;23;20192;-93
2023/07/16 05:09:31;;;;;;;1.27;1.13;;;;;;;;;;6107294;23;20207;-93
2023/07/16 05:11:58;;;;;;;1.98;1.25;;;;;;;;;;6108015;23;20172;-93
2023/07/16 05:14:28;;;;;;;1.63;1.40;;;;;;;;;;6108190;23;20176;-94
2023/07/16 05:16:56;;;;;;;1.95;1.23;;;;;;;;;;6109099;23;20716;-93
2023/07/16 05:19:24;;;;;;;1.20;1.20;;;;;;;;;;6109386;23;21852;-93
2023/07/16 05:21:52;;;;;;;1.85;1.33;;;;;;;;;;6110512;23;20172;-93
2023/07/16 05:24:20;;;;;;;2.30;1.75;;;;;;;;;;6111531;23;20172;-94
2023/07/16 05:26:50;;;;;;;1.40;1.05;;;;;;;;;;6108884;23;20188;-93
2023/07/16 05:29:18;;;;;;;1.27;1.20;;;;;;;;;;6106411;23;20196;-93
2023/07/16 05:31:46;;;;;;;1.38;1.20;;;;;;;;;;6110312;23;20180;-95
2023/07/16 05:34:14;;;;;;;1.48;1.38;;;;;;;;;;6113667;23;20279;-93
2023/07/16 05:36:44;;;;;;;1.45;1.35;;;;;;;;;;6115892;23;20172;-94
2023/07/16 05:39:12;;;;;;;1.27;1.10;;;;;;;;;;6119008;23;20175;-94
2023/07/16 05:41:41;;;;;;;2.15;1.10;;;;;;;;;;6121456;23;20172;-95
2023/07/16 05:44:10;;;;;;;1.00;1.00;;;;;;;;;;6121074;23;20192;-94
2023/07/16 05:46:37;;;;;;;2.15;1.63;;;;;;;;;;6121355;23;20172;-95
2023/07/16 05:49:05;;;;;;;2.03;1.50;;;;;;;;;;6120738;23;20403;-93
2023/07/16 05:51:33;;;;;;;1.83;1.50;;;;;;;;;;6120554;23;20187;-95
2023/07/16 05:54:00;;;;;;;2.10;1.27;;;;;;;;;;6120828;23;20164;-95
2023/07/16 05:56:28;;;;;;;2.10;1.10;;;;;;;;;;6120921;23;20177;-94
2023/07/16 05:58:56;;;;;;;1.92;1.50;;;;;;;;;;6123412;23;20172;-94
2023/07/16 06:01:25;;;;;;;4.15;1.42;;;;;;;;;;6123678;23;20211;-94
2023/07/16 06:03:53;;;;;;;1.45;1.23;;;;;;;;;;6124373;23;20176;-95
2023/07/16 06:06:21;;;;;;;2.20;1.35;;;;;;;;;;6124008;23;20243;-94
2023/07/16 06:08:49;;;;;;;2.28;1.20;;;;;;;;;;6123273;23;20176;-94
2023/07/16 06:11:17;;;;;;;1.58;1.38;;;;;;;;;;6122352;23;20196;-94
2023/07/16 06:13:44;;;;;;;1.88;1.73;;;;;;;;;;6119938;23;20176;-95
2023/07/16 06:16:12;;;;;;;3.13;1.35;;;;;;;;;;6119308;23;20176;-94
2023/07/16 06:18:41;;;;;;;1.60;1.50;;;;;;;;;;6121663;23;20177;-94
2023/07/16 06:21:09;;;;;;;1.90;1.30;;;;;;;;;;6123747;23;20196;-94
2023/07/16 06:23:37;;;;;;;1.50;1.40;;;;;;;;;;6122719;23;20176;-95
2023/07/16 06:26:05;;;;;;;2.35;1.70;;;;;;;;;;6121821;23;20152;-95
2023/07/16 06:28:32;;;;;;;2.63;1.55;;;;;;;;;;6122605;23;20167;-94
2023/07/16 06:31:00;;;;;;;1.40;1.30;;;;;;;;;;6119919;23;20200;-94
2023/07/16 06:33:28;;;;;;;2.72;1.70;;;;;;;;;;6122898;23;20160;-94
2023/07/16 06:35:57;;;;;;;1.98;1.45;;;;;;;;;;6123849;23;20160;-94
2023/07/16 06:38:25;;;;;;;1.50;1.40;;;;;;;;;;6124624;23;20164;-94
2023/07/16 06:40:53;;;;;;;1.70;1.20;;;;;;;;;;6124531;23;20169;-94
2023/07/16 06:43:21;;;;;;;3.17;1.65;;;;;;;;;;6124523;23;20148;-95
2023/07/16 06:45:51;;;;;;;1.52;1.42;;;;;;;;;;6124127;23;20216;-96
2023/07/16 06:48:19;;;;;;;2.75;1.65;;;;;;;;;;6123733;23;20180;-94
2023/07/16 06:50:47;;;;;;;3.20;1.60;;;;;;;;;;6122823;23;20205;-94
2023/07/16 06:53:16;;;;;;;1.33;1.20;;;;;;;;;;6123658;23;20185;-94
2023/07/16 06:55:44;;;;;;;1.92;1.40;;;;;;;;;;6123624;23;20182;-94
2023/07/16 06:58:15;;;;;;;2.75;1.85;;;;;;;;;;6123441;23;20168;-96
2023/07/16 07:00:42;;;;;;;3.10;1.40;;;;;;;;;;6123360;23;20184;-94
2023/07/16 07:03:10;;;;;;;1.80;1.65;;;;;;;;;;6123473;23;20177;-95
2023/07/16 07:05:41;;;;;;;3.90;1.52;;;;;;;;;;6123870;23;20160;-94
2023/07/16 07:08:09;;;;;;;1.90;1.40;;;;;;;;;;6124020;23;20169;-95
2023/07/16 07:10:39;;;;;;;1.90;1.70;;;;;;;;;;6123243;23;20215;-93
2023/07/16 07:13:07;;;;;;;3.13;1.73;;;;;;;;;;6123449;23;20160;-95
2023/07/16 07:15:35;;;;;;;1.85;1.75;;;;;;;;;;6123500;23;20177;-95
2023/07/16 07:18:03;;;;;;;1.98;1.20;;;;;;;;;;6124103;23;20160;-96
2023/07/16 07:20:30;;;;;;;2.47;1.67;;;;;;;;;;6123533;23;20169;-94
2023/07/16 07:23:02;;;;;;;2.55;2.03;;;;;;;;;;6124038;23;20152;-95
2023/07/16 07:25:29;;;;;;;1.45;1.33;;;;;;;;;;6125366;23;20177;-95
2023/07/16 07:27:59;;;;;;;2.08;1.50;;;;;;;;;;6125625;23;20193;-95
2023/07/16 07:30:26;;;;;;;1.58;1.42;;;;;;;;;;6125294;23;20188;-96
2023/07/16 07:32:54;;;;;;;1.70;1.35;;;;;;;;;;6125846;23;20160;-94
2023/07/16 07:35:22;;;;;;;2.25;1.70;;;;;;;;;;6125088;23;20164;-95
2023/07/16 07:37:49;;;;;;;2.78;2.10;;;;;;;;;;6142527;23;20206;-87
2023/07/16 07:40:17;;;;;;;1.40;1.10;;;;;;;;;;6156189;23;20685;-85
2023/07/16 07:42:44;;;;;;;1.60;1.50;;;;;;;;;;6155951;23;20533;-84
2023/07/16 07:45:13;;;;;;;1.33;1.23;;;;;;;;;;6156034;23;20258;-84
2023/07/16 07:47:41;;;;;;;1.35;1.25;;;;;;;;;;6126704;23;20492;-84
2023/07/16 07:50:09;;;;;;;1.83;1.52;;;;;;;;;;6126758;23;20258;-87
2023/07/16 07:52:37;;;;;;;2.65;2.20;;;;;;;;;;6151504;23;20301;-85
2023/07/16 07:55:05;;;;;;;1.60;1.40;;;;;;;;;;6159121;23;20205;-85
2023/07/16 07:57:32;;;;;;;1.60;1.50;;;;;;;;;;6159359;23;20566;-85
2023/07/16 08:00:00;;;;;;;2.05;1.60;;;;;;;;;;6160425;23;20654;-85
2023/07/16 08:02:29;;;;;;;1.10;1.10;;;;;;;;;;6135918;23;20267;-84
2023/07/16 08:04:57;;;;;;;1.63;1.40;;;;;;;;;;6130979;23;20179;-84
2023/07/16 08:07:25;;;;;;;1.83;1.52;;;;;;;;;;6130729;23;20216;-84
2023/07/16 08:09:53;;;;;;;1.63;1.52;;;;;;;;;;6130426;23;20175;-84
2023/07/16 08:12:20;;;;;;;2.22;1.90;;;;;;;;;;6130159;23;20204;-83
2023/07/16 08:14:49;;;;;;;2.05;1.83;;;;;;;;;;6130915;23;20642;-84
2023/07/16 08:17:16;;;;;;;2.38;1.40;;;;;;;;;;6130177;23;20251;-85
2023/07/16 08:19:45;;;;;;;1.98;1.40;;;;;;;;;;6130594;23;20255;-85
2023/07/16 08:22:13;;;;;;;1.35;1.25;;;;;;;;;;6130113;23;20223;-85
2023/07/16 08:24:40;;;;;;;1.60;1.50;;;;;;;;;;6130541;23;20180;-85
2023/07/16 08:27:08;;;;;;;1.50;1.40;;;;;;;;;;6130103;23;20211;-84
2023/07/16 08:29:37;;;;;;;2.55;1.75;;;;;;;;;;6129970;23;20247;-85
2023/07/16 08:32:05;;;;;;;1.70;1.60;;;;;;;;;;6129556;23;20593;-84
2023/07/16 08:34:33;;;;;;;2.17;1.98;;;;;;;;;;6130131;23;20180;-85
2023/07/16 08:37:01;;;;;;;1.65;1.55;;;;;;;;;;6128993;23;20211;-84
2023/07/16 08:39:29;;;;;;;1.95;1.85;;;;;;;;;;6130079;23;20207;-85
2023/07/16 08:41:57;;;;;;;2.25;1.67;;;;;;;;;;6129526;23;20737;-84
2023/07/16 08:44:24;;;;;;;2.60;1.98;;;;;;;;;;6129210;23;20628;-84
2023/07/16 08:46:52;;;;;;;2.53;1.88;;;;;;;;;;6130429;23;20552;-84
2023/07/16 08:49:20;;;;;;;2.25;1.88;;;;;;;;;;6128979;23;20251;-85
2023/07/16 08:51:49;;;;;;;2.00;1.88;;;;;;;;;;6129310;23;20291;-85
2023/07/16 08:54:19;;;;;;;1.60;1.50;;;;;;;;;;6130057;23;20649;-85
2023/07/16 08:56:48;;;;;;;1.80;1.70;;;;;;;;;;6130092;23;20203;-85
2023/07/16 08:59:16;;;;;;;1.65;1.45;;;;;;;;;;6129777;23;20179;-85
2023/07/16 09:01:44;;;;;;;1.67;1.58;;;;;;;;;;6129726;23;20274;-84
2023/07/16 09:04:11;;;;;;;2.35;1.80;;;;;;;;;;6130067;23;20267;-85
2023/07/16 09:06:39;;;;;;;2.45;1.95;;;;;;;;;;6129183;23;20218;-84
2023/07/16 09:09:06;;;;;;;1.73;1.63;;;;;;;;;;6129363;23;20631;-84
2023/07/16 09:11:36;;;;;;;2.85;1.83;;;;;;;;;;6128029;23;20647;-84
2023/07/16 09:14:04;;;;;;;2.25;1.65;;;;;;;;;;6129186;23;20255;-84
2023/07/16 09:16:34;;;;;;;2.85;2.10;;;;;;;;;;6129527;23;20279;-84
2023/07/16 09:19:13;;;;;;;3.58;1.85;;;;;;;;;;6129380;23;20218;-84
2023/07/16 09:21:40;;;;;;;1.77;1.67;;;;;;;;;;6128468;23;20202;-84
2023/07/16 09:24:09;;;;;;;2.45;1.40;;;;;;;;;;6128558;23;20203;-85
2023/07/16 09:26:39;;;;;;;2.63;1.83;;;;;;;;;;6128682;23;20180;-85
2023/07/16 09:29:07;;;;;;;1.77;1.67;;;;;;;;;;6128371;23;20635;-84
2023/07/16 09:31:35;;;;;;;1.80;1.70;;;;;;;;;;6128648;23;20200;-85
2023/07/16 09:34:02;;;;;;;2.17;1.98;;;;;;;;;;6129346;23;20259;-83
2023/07/16 09:36:30;;;;;;;1.92;1.83;;;;;;;;;;6128914;23;20255;-84
2023/07/16 09:38:59;;;;;;;3.30;1.60;;;;;;;;;;6128726;23;20258;-85
2023/07/16 09:41:27;;;;;;;1.77;1.67;;;;;;;;;;6129461;23;20220;-85
2023/07/16 09:43:55;;;;;;;3.17;1.83;;;;;;;;;;6128790;23;20669;-85
2023/07/16 09:46:23;;;;;;;1.70;1.60;;;;;;;;;;6128526;23;20211;-84
2023/07/16 09:48:50;;;;;;;1.60;1.50;;;;;;;;;;6127722;23;20673;-84
2023/07/16 09:51:18;;;;;;;2.33;2.13;;;;;;;;;;6129436;23;20246;-84
2023/07/16 09:53:46;;;;;;;2.08;1.88;;;;;;;;;;6128027;23;20595;-84
2023/07/16 09:56:15;;;;;;;3.80;2.00;;;;;;;;;;6128824;23;20563;-85
2023/07/16 09:58:42;;;;;;;2.20;1.92;;;;;;;;;;6129617;23;20211;-85
2023/07/16 10:01:11;;;;;;;1.90;1.80;;;;;;;;;;6128512;23;20207;-85
2023/07/16 10:03:50;;;;;;;2.10;1.95;;;;;;;;;;6129008;23;20180;-84
2023/07/16 10:06:18;;;;;;;2.00;1.90;;;;;;;;;;6128283;23;20156;-85
2023/07/16 10:08:50;;;;;;;2.38;1.80;;;;;;;;;;6129140;23;20258;-83
2023/07/16 10:11:19;;;;;;;1.67;1.58;;;;;;;;;;6127978;23;20202;-85
2023/07/16 10:13:51;;;;;;;1.77;1.65;;;;;;;;;;6128424;23;20222;-84
2023/07/16 10:16:24;;;;;;;2.03;1.92;;;;;;;;;;6129498;23;20167;-85
2023/07/16 10:18:55;;;;;;;2.53;1.90;;;;;;;;;;6128952;23;20192;-85
2023/07/16 10:21:25;;;;;;;1.90;1.80;;;;;;;;;;6128864;23;20572;-85
2023/07/16 10:23:59;;;;;;;1.77;1.67;;;;;;;;;;6129342;23;20622;-84
2023/07/16 10:26:29;;;;;;;2.30;2.10;;;;;;;;;;6130073;23;20167;-84
2023/07/16 10:28:57;;;;;;;3.40;1.85;;;;;;;;;;6129994;23;20176;-84
2023/07/16 10:31:27;;;;;;;3.10;2.03;;;;;;;;;;6128973;23;20598;-84
2023/07/16 10:34:02;;;;;;;2.40;2.20;;;;;;;;;;6129871;23;20234;-85
2023/07/16 10:36:29;;;;;;;2.22;2.00;;;;;;;;;;6129379;23;20176;-84
2023/07/16 10:39:02;;;;;;;2.38;2.17;;;;;;;;;;6129797;23;20179;-85
2023/07/16 10:41:31;;;;;;;3.25;2.75;;;;;;;;;;6128472;23;20737;-84
2023/07/16 10:43:58;;;;;;;2.17;2.03;;;;;;;;;;6130605;23;20254;-84
2023/07/16 10:46:27;;;;;;;2.33;2.08;;;;;;;;;;6129065;23;20186;-85
2023/07/16 10:48:55;;;;;;;2.05;1.85;;;;;;;;;;6129430;23;20270;-85
2023/07/16 10:51:27;;;;;;;2.10;2.00;;;;;;;;;;6128309;23;20592;-85
2023/07/16 10:53:57;;;;;;;2.00;1.90;;;;;;;;;;6128443;23;20211;-85
2023/07/16 10:56:25;;;;;;;2.63;2.42;;;;;;;;;;6128301;23;20156;-84
2023/07/16 10:58:52;;;;;;;2.30;2.10;;;;;;;;;;6128811;23;20175;-85
2023/07/16 11:01:20;;;;;;;1.73;1.63;;;;;;;;;;6127481;23;20223;-84
2023/07/16 11:03:49;;;;;;;2.60;1.98;;;;;;;;;;6128910;23;20214;-85
2023/07/16 11:06:17;;;;;;;2.13;1.92;;;;;;;;;;6128909;23;20250;-84
2023/07/16 11:08:45;;;;;;;3.05;2.22;;;;;;;;;;6128348;23;20243;-85
2023/07/16 11:11:12;;;;;;;2.10;2.00;;;;;;;;;;6128177;23;20219;-84
2023/07/16 11:13:40;;;;;;;2.33;1.98;;;;;;;;;;6127710;23;20239;-85
2023/07/16 11:16:10;;;;;;;2.53;2.33;;;;;;;;;;6128843;23;20232;-85
2023/07/16 11:18:38;;;;;;;2.72;2.10;;;;;;;;;;6129815;23;20572;-85
2023/07/16 11:21:07;;;;;;;2.53;1.83;;;;;;;;;;6128116;23;20234;-84
2023/07/16 11:23:35;;;;;;;1.77;1.67;;;;;;;;;;6128575;23;20211;-84
2023/07/16 11:26:04;;;;;;;3.00;2.08;;;;;;;;;;6127770;23;20259;-84
2023/07/16 11:28:38;;;;;;;2.20;2.10;;;;;;;;;;6128879;23;20211;-85
2023/07/16 11:31:13;;;;;;;2.05;1.85;;;;;;;;;;6128829;23;20567;-85
2023/07/16 11:33:44;;;;;;;2.40;1.90;;;;;;;;;;6129112;23;20239;-85
2023/07/16 11:36:13;;;;;;;2.17;1.98;;;;;;;;;;6128743;23;20164;-86
2023/07/16 11:38:41;;;;;;;2.20;1.80;;;;;;;;;;6128966;23;20182;-84
2023/07/16 11:41:08;;;;;;;1.95;1.85;;;;;;;;;;6128568;23;20227;-85
2023/07/16 11:43:36;;;;;;;3.45;1.85;;;;;;;;;;6129761;23;20246;-83
2023/07/16 11:46:04;;;;;;;2.40;2.20;;;;;;;;;;6128949;23;20187;-85
2023/07/16 11:48:31;;;;;;;2.42;1.73;;;;;;;;;;6128483;23;20259;-84
2023/07/16 11:50:59;;;;;;;2.40;2.20;;;;;;;;;;6128494;23;20223;-84
2023/07/16 11:53:28;;;;;;;2.42;1.85;;;;;;;;;;6128131;23;20231;-84
2023/07/16 11:55:55;;;;;;;2.42;1.73;;;;;;;;;;6128957;23;20243;-85
2023/07/16 11:58:22;;;;;;;2.72;2.42;;;;;;;;;;6129129;23;20630;-84
2023/07/16 12:00:51;;;;;;;1.77;1.67;;;;;;;;;;6129768;23;20215;-85
2023/07/16 12:03:18;;;;;;;1.90;1.80;;;;;;;;;;6128781;23;20615;-84
2023/07/16 12:05:46;;;;;;;2.03;1.85;;;;;;;;;;6128929;23;20210;-84
2023/07/16 12:08:14;;;;;;;2.42;2.22;;;;;;;;;;6130028;23;20211;-83
2023/07/16 12:10:43;;;;;;;2.53;2.33;;;;;;;;;;6131571;23;20182;-85
2023/07/16 12:13:11;;;;;;;2.13;1.70;;;;;;;;;;6131089;23;20304;-85
2023/07/16 12:15:38;;;;;;;1.92;1.83;;;;;;;;;;6130814;23;20207;-85
2023/07/16 12:18:06;;;;;;;2.50;2.30;;;;;;;;;;6130199;23;20206;-84
2023/07/16 12:20:36;;;;;;;2.65;1.95;;;;;;;;;;6130259;23;20211;-85
2023/07/16 12:23:03;;;;;;;2.05;1.95;;;;;;;;;;6131502;23;20175;-84
2023/07/16 12:25:31;;;;;;;3.25;2.35;;;;;;;;;;6131027;23;20567;-84
2023/07/16 12:28:02;;;;;;;2.67;2.00;;;;;;;;;;6130303;23;20222;-84
2023/07/16 12:30:29;;;;;;;2.38;1.90;;;;;;;;;;6129968;23;20164;-83
2023/07/16 12:32:57;;;;;;;4.07;2.63;;;;;;;;;;6129700;23;20274;-84
2023/07/16 12:35:24;;;;;;;2.67;2.33;;;;;;;;;;6128917;23;20401;-85
2023/07/16 12:37:52;;;;;;;3.47;2.63;;;;;;;;;;6129228;23;20259;-84
2023/07/16 12:40:19;;;;;;;2.50;2.30;;;;;;;;;;6129911;23;20203;-84
2023/07/16 12:42:47;;;;;;;2.67;2.47;;;;;;;;;;6130166;23;20270;-85
2023/07/16 12:45:16;;;;;;;2.15;2.05;;;;;;;;;;6129934;23;20212;-84
2023/07/16 12:47:43;;;;;;;3.13;2.00;;;;;;;;;;6128759;23;20215;-85
2023/07/16 12:50:11;;;;;;;3.55;2.33;;;;;;;;;;6130832;23;20210;-85
2023/07/16 12:52:38;;;;;;;2.08;1.90;;;;;;;;;;6130728;23;20694;-84
2023/07/16 12:55:07;;;;;;;2.88;2.60;;;;;;;;;;6131357;23;20545;-83
2023/07/16 12:57:34;;;;;;;3.17;2.60;;;;;;;;;;6131014;23;20640;-84
2023/07/16 13:00:05;;;;;;;3.50;2.45;;;;;;;;;;6130257;23;20207;-84
2023/07/16 13:02:33;;;;;;;3.78;2.90;;;;;;;;;;6129989;23;20514;-83
2023/07/16 13:05:01;;;;;;;2.17;1.98;;;;;;;;;;6130030;23;20360;-83
2023/07/16 13:07:28;;;;;;;3.13;2.63;;;;;;;;;;6131082;23;20666;-84
2023/07/16 13:09:56;;;;;;;2.60;2.25;;;;;;;;;;6129043;23;20259;-85
2023/07/16 13:12:23;;;;;;;2.88;2.47;;;;;;;;;;6129494;23;20199;-83
2023/07/16 13:14:51;;;;;;;2.35;2.15;;;;;;;;;;6129770;23;20195;-83
2023/07/16 13:17:19;;;;;;;2.60;2.40;;;;;;;;;;6129024;23;20191;-85
2023/07/16 13:19:48;;;;;;;2.30;2.10;;;;;;;;;;6129417;23;20186;-84
2023/07/16 13:22:15;;;;;;;1.80;1.70;;;;;;;;;;6128703;23;20223;-85
2023/07/16 13:24:43;;;;;;;1.73;1.63;;;;;;;;;;6130482;23;20203;-83
2023/07/16 13:27:20;;;;;;;2.75;2.50;;;;;;;;;;6129428;23;20180;-83
2023/07/16 13:29:47;;;;;;;3.40;3.10;;;;;;;;;;6130314;23;20243;-85
2023/07/16 13:32:15;;;;;;;2.13;2.03;;;;;;;;;;6131547;23;20283;-85
2023/07/16 13:34:42;;;;;;;2.40;2.20;;;;;;;;;;6130952;23;20567;-84
2023/07/16 13:37:11;;;;;;;2.25;2.15;;;;;;;;;;6130248;23;20251;-84
2023/07/16 13:39:38;;;;;;;3.10;2.60;;;;;;;;;;6130537;23;20207;-84
2023/07/16 13:42:07;;;;;;;2.40;2.20;;;;;;;;;;6129936;23;20287;-85
2023/07/16 13:44:34;;;;;;;2.67;2.47;;;;;;;;;;6131291;23;20176;-84
2023/07/16 13:47:02;;;;;;;2.95;2.75;;;;;;;;;;6130728;23;20250;-85
2023/07/16 13:49:30;;;;;;;2.60;2.42;;;;;;;;;;6129939;23;20512;-84
2023/07/16 13:51:57;;;;;;;2.70;2.50;;;;;;;;;;6129474;23;20525;-87
2023/07/16 13:54:26;;;;;;;2.70;2.50;;;;;;;;;;6126389;23;20250;-86
2023/07/16 13:56:53;;;;;;;3.15;2.67;;;;;;;;;;6126828;23;20250;-87
2023/07/16 13:59:21;;;;;;;2.95;2.58;;;;;;;;;;6126604;23;20215;-86
2023/07/16 14:01:48;;;;;;;2.90;2.22;;;;;;;;;;6126035;23;20227;-86
2023/07/16 14:04:16;;;;;;;3.05;2.85;;;;;;;;;;6124934;23;20190;-86
2023/07/16 14:06:43;;;;;;;5.22;3.15;;;;;;;;;;6125897;23;20650;-87
2023/07/16 14:09:11;;;;;;;2.45;2.20;;;;;;;;;;6125909;23;20210;-87
2023/07/16 14:11:40;;;;;;;2.80;2.47;;;;;;;;;;6125148;23;20232;-87
2023/07/16 14:14:07;;;;;;;2.47;2.28;;;;;;;;;;6125175;23;20801;-87
2023/07/16 14:16:35;;;;;;;2.80;2.60;;;;;;;;;;6125410;23;20702;-87
2023/07/16 14:19:02;;;;;;;2.85;2.65;;;;;;;;;;6125821;23;20263;-88
2023/07/16 14:21:30;;;;;;;3.95;2.92;;;;;;;;;;6125642;23;20663;-86
2023/07/16 14:23:58;;;;;;;2.58;2.38;;;;;;;;;;6126197;23;20210;-87
2023/07/16 14:26:26;;;;;;;2.83;2.63;;;;;;;;;;6126056;23;20214;-87
2023/07/16 14:28:55;;;;;;;2.58;2.38;;;;;;;;;;6125890;23;20211;-88
2023/07/16 14:31:22;;;;;;;2.95;2.65;;;;;;;;;;6125439;23;20238;-87
2023/07/16 14:33:49;;;;;;;2.55;2.25;;;;;;;;;;6125198;23;20208;-86
2023/07/16 14:36:17;;;;;;;3.05;2.75;;;;;;;;;;6125864;23;20246;-86
2023/07/16 14:38:45;;;;;;;2.90;2.70;;;;;;;;;;6125736;23;20190;-87
2023/07/16 14:41:12;;;;;;;2.53;2.33;;;;;;;;;;6125226;23;20274;-86
2023/07/16 14:43:40;;;;;;;3.00;2.42;;;;;;;;;;6125381;23;20186;-87
2023/07/16 14:46:15;;;;;;;2.22;2.08;;;;;;;;;;6125532;23;20219;-86
2023/07/16 14:48:44;;;;;;;2.97;2.78;;;;;;;;;;6126192;23;20173;-87
2023/07/16 14:51:12;;;;;;;2.38;2.25;;;;;;;;;;6125286;23;20596;-86